sensor_id;sensor_type;location;lat;lon;timestamp;temperature;humidity
15152;DHT22;7676;50.900;6.234;2022-11-10T00:00:38;13.00;99.90
15152;DHT22;7676;50.900;6.234;2022-11-10T00:06:03;13.00;99.90
15152;DHT22;7676;50.900;6.234;2022-11-10T00:11:25;13.10;99.90
15152;DHT22;7676;50.900;6.234;2022-11-10T00:16:46;13.20;99.90
15152;DHT22;7676;50.900;6.234;2022-11-10T00:22:22;13.10;99.90
15152;DHT22;7676;50.900;6.234;2022-11-10T00:27:45;13.10;99.90
15152;DHT22;7676;50.900;6.234;2022-11-10T00:33:06;13.00;99.90
15152;DHT22;7676;50.900;6.234;2022-11-10T00:38:27;12.90;99.90
15152;DHT22;7676;50.900;6.234;2022-11-10T00:43:48;12.90;99.90
15152;DHT22;7676;50.900;6.234;2022-11-10T00:49:09;13.00;99.90
15152;DHT22;7676;50.900;6.234;2022-11-10T00:54:29;12.90;99.90
15152;DHT22;7676;50.900;6.234;2022-11-10T00:59:50;13.00;99.90
15152;DHT22;7676;50.900;6.234;2022-11-10T01:05:11;13.10;99.90
15152;DHT22;7676;50.900;6.234;2022-11-10T01:10:32;12.90;99.90
15152;DHT22;7676;50.900;6.234;2022-11-10T01:15:53;12.90;99.90
15152;DHT22;7676;50.900;6.234;2022-11-10T01:21:13;12.90;99.90
15152;DHT22;7676;50.900;6.234;2022-11-10T01:26:34;12.70;99.90
15152;DHT22;7676;50.900;6.234;2022-11-10T01:31:55;12.90;99.90
15152;DHT22;7676;50.900;6.234;2022-11-10T01:37:16;13.00;99.90
15152;DHT22;7676;50.900;6.234;2022-11-10T01:48:06;13.10;99.90
15152;DHT22;7676;50.900;6.234;2022-11-10T01:53:31;12.90;99.90
15152;DHT22;7676;50.900;6.234;2022-11-10T01:58:56;12.70;99.90
15152;DHT22;7676;50.900;6.234;2022-11-10T02:04:19;12.70;99.90
15152;DHT22;7676;50.900;6.234;2022-11-10T02:09:40;12.80;99.90
15152;DHT22;7676;50.900;6.234;2022-11-10T02:15:13;12.70;99.90
15152;DHT22;7676;50.900;6.234;2022-11-10T02:20:34;12.70;99.90
15152;DHT22;7676;50.900;6.234;2022-11-10T02:25:56;12.90;99.90
15152;DHT22;7676;50.900;6.234;2022-11-10T02:31:17;12.80;99.90
15152;DHT22;7676;50.900;6.234;2022-11-10T02:36:37;12.80;99.90
15152;DHT22;7676;50.900;6.234;2022-11-10T02:41:58;13.00;99.90
15152;DHT22;7676;50.900;6.234;2022-11-10T02:47:19;12.70;99.90
15152;DHT22;7676;50.900;6.234;2022-11-10T02:52:39;12.70;99.90
15152;DHT22;7676;50.900;6.234;2022-11-10T02:58:00;12.60;99.90
15152;DHT22;7676;50.900;6.234;2022-11-10T03:03:21;12.60;99.90
15152;DHT22;7676;50.900;6.234;2022-11-10T03:08:42;12.40;99.90
15152;DHT22;7676;50.900;6.234;2022-11-10T03:14:03;12.60;99.90
15152;DHT22;7676;50.900;6.234;2022-11-10T03:19:24;12.70;99.90
15152;DHT22;7676;50.900;6.234;2022-11-10T03:24:45;12.80;99.90
15152;DHT22;7676;50.900;6.234;2022-11-10T03:30:06;12.80;99.90
15152;DHT22;7676;50.900;6.234;2022-11-10T03:35:28;12.80;99.90
15152;DHT22;7676;50.900;6.234;2022-11-10T03:40:49;12.80;99.90
15152;DHT22;7676;50.900;6.234;2022-11-10T03:46:30;12.40;99.90
15152;DHT22;7676;50.900;6.234;2022-11-10T03:51:51;12.20;99.90
15152;DHT22;7676;50.900;6.234;2022-11-10T03:57:12;12.20;99.90
15152;DHT22;7676;50.900;6.234;2022-11-10T04:02:33;12.10;99.90
15152;DHT22;7676;50.900;6.234;2022-11-10T04:07:58;12.30;99.90
15152;DHT22;7676;50.900;6.234;2022-11-10T04:13:39;12.20;99.90
15152;DHT22;7676;50.900;6.234;2022-11-10T04:19:18;12.30;99.90
15152;DHT22;7676;50.900;6.234;2022-11-10T04:24:39;12.20;99.90
15152;DHT22;7676;50.900;6.234;2022-11-10T04:30:00;12.10;99.90
15152;DHT22;7676;50.900;6.234;2022-11-10T04:35:20;12.40;99.90
15152;DHT22;7676;50.900;6.234;2022-11-10T04:40:41;12.20;99.90
15152;DHT22;7676;50.900;6.234;2022-11-10T04:46:03;12.30;99.90
15152;DHT22;7676;50.900;6.234;2022-11-10T04:51:29;12.40;99.90
15152;DHT22;7676;50.900;6.234;2022-11-10T04:56:51;12.30;99.90
15152;DHT22;7676;50.900;6.234;2022-11-10T05:02:11;12.40;99.90
15152;DHT22;7676;50.900;6.234;2022-11-10T05:07:32;12.30;99.90
15152;DHT22;7676;50.900;6.234;2022-11-10T05:12:54;12.30;99.90
15152;DHT22;7676;50.900;6.234;2022-11-10T05:18:15;12.40;99.90
15152;DHT22;7676;50.900;6.234;2022-11-10T05:23:36;12.60;99.90
15152;DHT22;7676;50.900;6.234;2022-11-10T05:29:00;12.60;99.90
15152;DHT22;7676;50.900;6.234;2022-11-10T05:34:21;12.60;99.90
15152;DHT22;7676;50.900;6.234;2022-11-10T05:39:42;12.60;99.90
15152;DHT22;7676;50.900;6.234;2022-11-10T05:45:04;12.60;99.90
15152;DHT22;7676;50.900;6.234;2022-11-10T05:50:25;12.40;99.90
15152;DHT22;7676;50.900;6.234;2022-11-10T05:55:46;12.30;99.90
15152;DHT22;7676;50.900;6.234;2022-11-10T06:01:07;12.30;99.90
15152;DHT22;7676;50.900;6.234;2022-11-10T06:06:28;12.30;99.90
15152;DHT22;7676;50.900;6.234;2022-11-10T06:11:49;12.00;99.90
15152;DHT22;7676;50.900;6.234;2022-11-10T06:17:10;11.90;99.90
15152;DHT22;7676;50.900;6.234;2022-11-10T06:22:31;11.80;99.90
15152;DHT22;7676;50.900;6.234;2022-11-10T06:27:52;11.80;99.90
15152;DHT22;7676;50.900;6.234;2022-11-10T06:33:13;11.90;99.90
15152;DHT22;7676;50.900;6.234;2022-11-10T06:38:34;11.90;99.90
15152;DHT22;7676;50.900;6.234;2022-11-10T06:43:55;11.70;99.90
15152;DHT22;7676;50.900;6.234;2022-11-10T06:49:16;11.70;99.90
15152;DHT22;7676;50.900;6.234;2022-11-10T06:54:36;11.80;99.90
15152;DHT22;7676;50.900;6.234;2022-11-10T06:59:58;11.70;99.90
15152;DHT22;7676;50.900;6.234;2022-11-10T07:05:19;11.80;99.90
15152;DHT22;7676;50.900;6.234;2022-11-10T07:10:40;11.80;99.90
15152;DHT22;7676;50.900;6.234;2022-11-10T07:16:07;11.80;99.90
15152;DHT22;7676;50.900;6.234;2022-11-10T07:21:28;11.70;99.90
15152;DHT22;7676;50.900;6.234;2022-11-10T07:26:49;11.70;99.90
15152;DHT22;7676;50.900;6.234;2022-11-10T07:32:10;11.70;99.90
15152;DHT22;7676;50.900;6.234;2022-11-10T07:37:31;11.60;99.90
15152;DHT22;7676;50.900;6.234;2022-11-10T07:42:51;11.70;99.90
15152;DHT22;7676;50.900;6.234;2022-11-10T07:48:12;11.70;99.90
15152;DHT22;7676;50.900;6.234;2022-11-10T07:53:34;11.80;99.90
15152;DHT22;7676;50.900;6.234;2022-11-10T07:58:54;11.80;99.90
15152;DHT22;7676;50.900;6.234;2022-11-10T08:04:15;11.80;99.90
15152;DHT22;7676;50.900;6.234;2022-11-10T08:09:36;11.80;99.90
15152;DHT22;7676;50.900;6.234;2022-11-10T08:14:57;11.90;99.90
15152;DHT22;7676;50.900;6.234;2022-11-10T08:20:17;11.80;99.90
15152;DHT22;7676;50.900;6.234;2022-11-10T08:25:38;11.90;99.90
15152;DHT22;7676;50.900;6.234;2022-11-10T08:31:01;11.90;99.90
15152;DHT22;7676;50.900;6.234;2022-11-10T08:36:25;11.90;99.90
15152;DHT22;7676;50.900;6.234;2022-11-10T08:41:46;12.00;99.90
15152;DHT22;7676;50.900;6.234;2022-11-10T08:47:07;11.90;99.90
15152;DHT22;7676;50.900;6.234;2022-11-10T08:52:28;12.10;99.90
15152;DHT22;7676;50.900;6.234;2022-11-10T08:57:49;12.10;99.90
15152;DHT22;7676;50.900;6.234;2022-11-10T09:03:12;12.00;99.90
15152;DHT22;7676;50.900;6.234;2022-11-10T09:08:33;12.40;99.90
15152;DHT22;7676;50.900;6.234;2022-11-10T09:13:54;12.20;99.90
15152;DHT22;7676;50.900;6.234;2022-11-10T09:19:15;12.40;99.90
15152;DHT22;7676;50.900;6.234;2022-11-10T09:24:40;12.30;99.90
15152;DHT22;7676;50.900;6.234;2022-11-10T09:30:01;12.40;99.90
15152;DHT22;7676;50.900;6.234;2022-11-10T09:35:22;12.60;99.90
15152;DHT22;7676;50.900;6.234;2022-11-10T09:46:35;12.70;99.90
15152;DHT22;7676;50.900;6.234;2022-11-10T09:51:58;12.90;99.90
15152;DHT22;7676;50.900;6.234;2022-11-10T09:57:24;13.00;99.90
15152;DHT22;7676;50.900;6.234;2022-11-10T10:02:50;13.00;99.90
15152;DHT22;7676;50.900;6.234;2022-11-10T10:08:38;13.20;99.90
15152;DHT22;7676;50.900;6.234;2022-11-10T10:14:20;13.30;99.90
15152;DHT22;7676;50.900;6.234;2022-11-10T10:25:36;13.50;99.90
15152;DHT22;7676;50.900;6.234;2022-11-10T10:31:11;13.60;99.90
15152;DHT22;7676;50.900;6.234;2022-11-10T10:36:33;13.80;99.90
15152;DHT22;7676;50.900;6.234;2022-11-10T10:41:54;14.10;99.90
15152;DHT22;7676;50.900;6.234;2022-11-10T10:47:14;14.10;99.90
15152;DHT22;7676;50.900;6.234;2022-11-10T10:52:35;14.10;99.90
15152;DHT22;7676;50.900;6.234;2022-11-10T10:58:02;14.20;99.90
15152;DHT22;7676;50.900;6.234;2022-11-10T11:03:47;14.30;99.90
15152;DHT22;7676;50.900;6.234;2022-11-10T11:09:14;14.60;99.90
15152;DHT22;7676;50.900;6.234;2022-11-10T11:14:35;14.50;99.90
15152;DHT22;7676;50.900;6.234;2022-11-10T11:20:02;14.60;99.90
15152;DHT22;7676;50.900;6.234;2022-11-10T11:25:36;14.70;99.90
15152;DHT22;7676;50.900;6.234;2022-11-10T11:37:15;14.80;99.90
15152;DHT22;7676;50.900;6.234;2022-11-10T11:54:20;15.30;99.90
15152;DHT22;7676;50.900;6.234;2022-11-10T12:00:06;15.10;99.90
15152;DHT22;7676;50.900;6.234;2022-11-10T12:05:36;15.30;99.90
15152;DHT22;7676;50.900;6.234;2022-11-10T12:11:06;15.20;99.90
15152;DHT22;7676;50.900;6.234;2022-11-10T12:16:32;15.50;99.90
15152;DHT22;7676;50.900;6.234;2022-11-10T12:22:12;15.60;99.90
15152;DHT22;7676;50.900;6.234;2022-11-10T12:27:41;15.70;99.90
15152;DHT22;7676;50.900;6.234;2022-11-10T12:44:35;15.80;99.90
15152;DHT22;7676;50.900;6.234;2022-11-10T12:56:04;16.00;99.90
15152;DHT22;7676;50.900;6.234;2022-11-10T13:01:28;16.10;99.90
15152;DHT22;7676;50.900;6.234;2022-11-10T13:06:52;16.10;99.90
15152;DHT22;7676;50.900;6.234;2022-11-10T13:12:19;15.90;99.90
15152;DHT22;7676;50.900;6.234;2022-11-10T13:23:23;16.30;99.90
15152;DHT22;7676;50.900;6.234;2022-11-10T13:28:56;16.20;99.90
15152;DHT22;7676;50.900;6.234;2022-11-10T13:39:38;15.80;99.90
15152;DHT22;7676;50.900;6.234;2022-11-10T13:45:41;15.80;99.90
15152;DHT22;7676;50.900;6.234;2022-11-10T13:51:21;15.80;99.90
15152;DHT22;7676;50.900;6.234;2022-11-10T14:02:50;15.80;99.90
15152;DHT22;7676;50.900;6.234;2022-11-10T14:08:17;15.80;99.90
15152;DHT22;7676;50.900;6.234;2022-11-10T14:13:46;15.80;99.90
15152;DHT22;7676;50.900;6.234;2022-11-10T14:25:02;15.90;99.90
15152;DHT22;7676;50.900;6.234;2022-11-10T14:30:25;15.50;99.90
15152;DHT22;7676;50.900;6.234;2022-11-10T14:36:10;15.50;99.90
15152;DHT22;7676;50.900;6.234;2022-11-10T14:41:32;15.50;99.90
15152;DHT22;7676;50.900;6.234;2022-11-10T14:46:53;15.40;99.90
15152;DHT22;7676;50.900;6.234;2022-11-10T14:52:14;15.30;99.90
15152;DHT22;7676;50.900;6.234;2022-11-10T14:57:35;15.40;99.90
15152;DHT22;7676;50.900;6.234;2022-11-10T15:02:57;15.40;99.90
15152;DHT22;7676;50.900;6.234;2022-11-10T15:08:18;15.30;99.90
15152;DHT22;7676;50.900;6.234;2022-11-10T15:13:40;15.20;99.90
15152;DHT22;7676;50.900;6.234;2022-11-10T15:19:30;15.20;99.90
15152;DHT22;7676;50.900;6.234;2022-11-10T15:24:52;15.00;99.90
15152;DHT22;7676;50.900;6.234;2022-11-10T15:30:22;15.00;99.90
15152;DHT22;7676;50.900;6.234;2022-11-10T15:35:44;15.00;99.90
15152;DHT22;7676;50.900;6.234;2022-11-10T15:41:21;15.00;99.90
15152;DHT22;7676;50.900;6.234;2022-11-10T15:46:51;14.90;99.90
15152;DHT22;7676;50.900;6.234;2022-11-10T15:52:16;14.80;99.90
15152;DHT22;7676;50.900;6.234;2022-11-10T15:57:38;14.80;99.90
15152;DHT22;7676;50.900;6.234;2022-11-10T16:02:59;14.70;99.90
15152;DHT22;7676;50.900;6.234;2022-11-10T16:08:21;14.70;99.90
15152;DHT22;7676;50.900;6.234;2022-11-10T16:13:43;14.70;99.90
15152;DHT22;7676;50.900;6.234;2022-11-10T16:19:04;14.60;99.90
15152;DHT22;7676;50.900;6.234;2022-11-10T16:24:24;14.60;99.90
15152;DHT22;7676;50.900;6.234;2022-11-10T16:29:46;14.90;99.90
15152;DHT22;7676;50.900;6.234;2022-11-10T16:35:11;15.00;99.90
15152;DHT22;7676;50.900;6.234;2022-11-10T16:40:33;15.10;99.90
15152;DHT22;7676;50.900;6.234;2022-11-10T16:45:56;15.00;99.90
15152;DHT22;7676;50.900;6.234;2022-11-10T16:51:39;15.20;99.90
15152;DHT22;7676;50.900;6.234;2022-11-10T16:57:15;15.20;99.90
15152;DHT22;7676;50.900;6.234;2022-11-10T17:02:37;15.10;99.90
15152;DHT22;7676;50.900;6.234;2022-11-10T17:07:59;15.10;99.90
15152;DHT22;7676;50.900;6.234;2022-11-10T17:13:20;14.80;99.90
15152;DHT22;7676;50.900;6.234;2022-11-10T17:18:42;14.70;99.90
15152;DHT22;7676;50.900;6.234;2022-11-10T17:24:04;14.70;99.90
15152;DHT22;7676;50.900;6.234;2022-11-10T17:29:24;14.70;99.90
15152;DHT22;7676;50.900;6.234;2022-11-10T17:34:46;14.60;99.90
15152;DHT22;7676;50.900;6.234;2022-11-10T17:40:21;14.50;99.90
15152;DHT22;7676;50.900;6.234;2022-11-10T17:45:42;14.40;99.90
15152;DHT22;7676;50.900;6.234;2022-11-10T17:51:03;14.20;99.90
15152;DHT22;7676;50.900;6.234;2022-11-10T17:56:24;14.20;99.90
15152;DHT22;7676;50.900;6.234;2022-11-10T18:01:45;14.00;99.90
15152;DHT22;7676;50.900;6.234;2022-11-10T18:07:06;14.00;99.90
15152;DHT22;7676;50.900;6.234;2022-11-10T18:12:27;13.90;99.90
15152;DHT22;7676;50.900;6.234;2022-11-10T18:17:48;13.80;99.90
15152;DHT22;7676;50.900;6.234;2022-11-10T18:23:09;13.90;99.90
15152;DHT22;7676;50.900;6.234;2022-11-10T18:28:34;14.00;99.90
15152;DHT22;7676;50.900;6.234;2022-11-10T18:33:55;13.90;99.90
15152;DHT22;7676;50.900;6.234;2022-11-10T18:39:17;14.10;99.90
15152;DHT22;7676;50.900;6.234;2022-11-10T18:44:39;14.10;99.90
15152;DHT22;7676;50.900;6.234;2022-11-10T18:50:00;14.10;99.90
15152;DHT22;7676;50.900;6.234;2022-11-10T18:55:21;14.00;99.90
15152;DHT22;7676;50.900;6.234;2022-11-10T19:00:42;13.90;99.90
15152;DHT22;7676;50.900;6.234;2022-11-10T19:06:03;15.70;99.90
15152;DHT22;7676;50.900;6.234;2022-11-10T19:11:25;14.20;99.90
15152;DHT22;7676;50.900;6.234;2022-11-10T19:16:46;14.20;99.90
15152;DHT22;7676;50.900;6.234;2022-11-10T19:22:07;14.10;99.90
15152;DHT22;7676;50.900;6.234;2022-11-10T19:27:28;14.20;99.90
15152;DHT22;7676;50.900;6.234;2022-11-10T19:32:50;14.10;99.90
15152;DHT22;7676;50.900;6.234;2022-11-10T19:38:12;13.90;99.90
15152;DHT22;7676;50.900;6.234;2022-11-10T19:43:35;13.90;99.90
15152;DHT22;7676;50.900;6.234;2022-11-10T19:48:56;14.00;99.90
15152;DHT22;7676;50.900;6.234;2022-11-10T19:54:17;14.00;99.90
15152;DHT22;7676;50.900;6.234;2022-11-10T19:59:38;14.10;99.90
15152;DHT22;7676;50.900;6.234;2022-11-10T20:04:59;14.20;99.90
15152;DHT22;7676;50.900;6.234;2022-11-10T20:10:32;14.00;99.90
15152;DHT22;7676;50.900;6.234;2022-11-10T20:15:53;14.10;99.90
15152;DHT22;7676;50.900;6.234;2022-11-10T20:21:16;14.00;99.90
15152;DHT22;7676;50.900;6.234;2022-11-10T20:26:40;13.90;99.90
15152;DHT22;7676;50.900;6.234;2022-11-10T20:32:01;13.70;99.90
15152;DHT22;7676;50.900;6.234;2022-11-10T20:37:23;13.50;99.90
15152;DHT22;7676;50.900;6.234;2022-11-10T20:42:44;13.50;99.90
15152;DHT22;7676;50.900;6.234;2022-11-10T20:48:05;13.40;99.90
15152;DHT22;7676;50.900;6.234;2022-11-10T20:53:27;13.10;99.90
15152;DHT22;7676;50.900;6.234;2022-11-10T20:58:48;13.00;99.90
15152;DHT22;7676;50.900;6.234;2022-11-10T21:04:11;12.90;99.90
15152;DHT22;7676;50.900;6.234;2022-11-10T21:09:32;13.00;99.90
15152;DHT22;7676;50.900;6.234;2022-11-10T21:14:53;13.20;99.90
15152;DHT22;7676;50.900;6.234;2022-11-10T21:20:15;13.30;99.90
15152;DHT22;7676;50.900;6.234;2022-11-10T21:25:35;13.30;99.90
15152;DHT22;7676;50.900;6.234;2022-11-10T21:31:03;13.30;99.90
15152;DHT22;7676;50.900;6.234;2022-11-10T21:36:25;13.30;99.90
15152;DHT22;7676;50.900;6.234;2022-11-10T21:41:49;13.30;99.90
15152;DHT22;7676;50.900;6.234;2022-11-10T21:47:10;11.90;99.90
15152;DHT22;7676;50.900;6.234;2022-11-10T21:52:32;13.20;99.90
15152;DHT22;7676;50.900;6.234;2022-11-10T21:57:56;13.30;99.90
15152;DHT22;7676;50.900;6.234;2022-11-10T22:03:17;13.20;99.90
15152;DHT22;7676;50.900;6.234;2022-11-10T22:08:39;13.30;99.90
15152;DHT22;7676;50.900;6.234;2022-11-10T22:14:01;13.30;99.90
15152;DHT22;7676;50.900;6.234;2022-11-10T22:19:41;13.30;99.90
15152;DHT22;7676;50.900;6.234;2022-11-10T22:25:04;13.30;99.90
15152;DHT22;7676;50.900;6.234;2022-11-10T22:30:25;13.30;99.90
15152;DHT22;7676;50.900;6.234;2022-11-10T22:35:46;13.30;99.90
15152;DHT22;7676;50.900;6.234;2022-11-10T22:41:14;13.40;99.90
15152;DHT22;7676;50.900;6.234;2022-11-10T22:46:54;13.20;99.90
15152;DHT22;7676;50.900;6.234;2022-11-10T22:52:15;13.00;99.90
15152;DHT22;7676;50.900;6.234;2022-11-10T22:57:36;12.90;99.90
15152;DHT22;7676;50.900;6.234;2022-11-10T23:02:57;12.80;99.90
15152;DHT22;7676;50.900;6.234;2022-11-10T23:08:18;12.80;99.90
15152;DHT22;7676;50.900;6.234;2022-11-10T23:13:39;12.80;99.90
15152;DHT22;7676;50.900;6.234;2022-11-10T23:19:00;12.80;99.90
15152;DHT22;7676;50.900;6.234;2022-11-10T23:24:22;12.80;99.90
15152;DHT22;7676;50.900;6.234;2022-11-10T23:29:44;12.70;99.90
15152;DHT22;7676;50.900;6.234;2022-11-10T23:35:05;12.60;99.90
15152;DHT22;7676;50.900;6.234;2022-11-10T23:40:27;12.50;99.90
15152;DHT22;7676;50.900;6.234;2022-11-10T23:45:47;12.40;99.90
15152;DHT22;7676;50.900;6.234;2022-11-10T23:51:28;12.30;99.90
15152;DHT22;7676;50.900;6.234;2022-11-10T23:56:49;12.40;99.90
